Time;durP1;ratioP1;P1;durP2;ratioP2;P2;SDS_P1;SDS_P2;PMS_P1;PMS_P2;Temp;Humidity;BMP_temperature;BMP_pressure;BME280_temperature;BME280_humidity;BME280_pressure;Samples;Min_cycle;Max_cycle;Signal;HPM_P1;HPM_P2
2022/08/21 00:00:15;;;;;;;4.75;1.52;;;16.40;99.90;;;;;;4828032;29;20039;-83
2022/08/21 00:02:51;;;;;;;4.38;1.80;;;16.30;99.90;;;;;;4816971;29;20034;-83
2022/08/21 00:05:17;;;;;;;5.43;1.40;;;16.30;99.90;;;;;;4829190;29;20034;-84
2022/08/21 00:07:44;;;;;;;4.90;2.40;;;16.30;99.90;;;;;;4841718;29;20638;-83
2022/08/21 00:10:10;;;;;;;6.53;2.88;;;16.30;99.90;;;;;;4814309;29;20031;-83
2022/08/21 00:12:38;;;;;;;6.38;2.65;;;16.30;99.90;;;;;;4815608;29;20030;-83
2022/08/21 00:15:07;;;;;;;7.40;2.63;;;16.30;99.90;;;;;;4832555;29;20063;-84
2022/08/21 00:17:34;;;;;;;5.93;3.25;;;16.20;99.90;;;;;;4812960;29;20046;-83
2022/08/21 00:20:00;;;;;;;7.68;3.22;;;16.20;99.90;;;;;;4826780;29;20049;-82
2022/08/21 00:22:26;;;;;;;5.63;2.33;;;16.20;99.90;;;;;;4827626;29;20056;-82
2022/08/21 00:24:53;;;;;;;5.40;1.98;;;16.20;99.90;;;;;;4819603;29;20038;-82
2022/08/21 00:27:19;;;;;;;5.32;2.30;;;16.20;99.90;;;;;;4835602;29;20038;-83
2022/08/21 00:29:45;;;;;;;9.15;1.95;;;16.10;99.90;;;;;;4830014;29;20054;-83
2022/08/21 00:32:11;;;;;;;5.97;2.72;;;16.10;99.90;;;;;;4840523;29;20038;-83
2022/08/21 00:34:37;;;;;;;5.60;2.10;;;16.10;99.90;;;;;;4824355;29;20398;-82
2022/08/21 00:37:04;;;;;;;5.28;2.05;;;16.00;99.90;;;;;;4811518;29;20038;-83
2022/08/21 00:39:30;;;;;;;4.40;2.30;;;16.00;99.90;;;;;;4824610;29;20050;-83
2022/08/21 00:41:56;;;;;;;6.07;2.50;;;16.00;99.90;;;;;;4825274;29;20038;-83
2022/08/21 00:44:22;;;;;;;3.75;2.00;;;16.00;99.90;;;;;;4811410;29;20501;-83
2022/08/21 00:46:49;;;;;;;3.45;1.75;;;15.90;99.90;;;;;;4826759;29;20034;-82
2022/08/21 00:49:17;;;;;;;5.15;1.67;;;15.90;99.90;;;;;;4823634;29;20518;-82
2022/08/21 00:51:59;;;;;;;3.63;1.75;;;15.90;99.90;;;;;;4813615;29;20038;-82
2022/08/21 00:54:28;;;;;;;3.50;1.95;;;15.90;99.90;;;;;;4830719;29;20039;-83
2022/08/21 00:56:58;;;;;;;4.75;2.15;;;15.80;99.90;;;;;;4829282;29;20038;-83
2022/08/21 00:59:27;;;;;;;4.90;2.13;;;15.80;99.90;;;;;;4809553;29;20046;-84
2022/08/21 01:01:54;;;;;;;4.65;1.67;;;15.80;99.90;;;;;;4841990;29;20378;-82
2022/08/21 01:04:22;;;;;;;5.25;2.10;;;15.80;99.90;;;;;;4824520;29;20037;-82
2022/08/21 01:06:48;;;;;;;4.30;2.03;;;15.80;99.90;;;;;;4818558;29;20034;-83
2022/08/21 01:09:14;;;;;;;5.80;2.00;;;15.80;99.90;;;;;;4823873;29;20043;-82
2022/08/21 01:11:45;;;;;;;4.93;2.28;;;15.80;99.90;;;;;;4849451;29;20466;-81
2022/08/21 01:14:12;;;;;;;6.10;2.30;;;15.70;99.90;;;;;;4822149;29;20046;-84
2022/08/21 01:16:42;;;;;;;5.53;2.17;;;15.70;99.90;;;;;;4803067;29;20045;-83
2022/08/21 01:19:09;;;;;;;4.15;2.10;;;15.70;99.90;;;;;;4816898;29;20042;-83
2022/08/21 01:21:35;;;;;;;5.72;1.77;;;15.70;99.90;;;;;;4853864;29;20034;-83
2022/08/21 01:24:02;;;;;;;4.10;1.70;;;15.60;99.90;;;;;;4835801;29;20061;-83
2022/08/21 01:26:34;;;;;;;3.30;1.60;;;15.70;99.90;;;;;;4807448;29;20035;-84
2022/08/21 01:29:04;;;;;;;4.75;2.13;;;15.60;99.90;;;;;;4825632;29;20043;-82
2022/08/21 01:31:32;;;;;;;3.40;1.63;;;15.60;99.90;;;;;;4821862;29;20042;-83
2022/08/21 01:33:59;;;;;;;5.57;2.30;;;15.60;99.90;;;;;;4814777;29;20409;-83
2022/08/21 01:36:25;;;;;;;4.28;1.80;;;15.50;99.90;;;;;;4828606;29;20034;-82
2022/08/21 01:38:52;;;;;;;3.47;1.98;;;15.50;99.90;;;;;;4826627;29;20042;-83
2022/08/21 01:41:18;;;;;;;5.75;2.05;;;15.50;99.90;;;;;;4820510;29;20042;-83
2022/08/21 01:43:45;;;;;;;3.90;1.95;;;15.50;99.90;;;;;;4834885;29;20038;-84
2022/08/21 01:46:12;;;;;;;4.07;2.30;;;15.50;99.90;;;;;;4835863;29;20035;-84
2022/08/21 01:48:39;;;;;;;6.78;2.50;;;15.50;99.90;;;;;;4818820;29;20053;-83
2022/08/21 01:51:06;;;;;;;3.33;1.75;;;15.50;99.90;;;;;;4839836;29;20045;-84
2022/08/21 01:53:35;;;;;;;4.25;2.20;;;15.40;99.90;;;;;;4847026;29;20046;-82
2022/08/21 01:56:04;;;;;;;4.80;1.83;;;15.40;99.90;;;;;;4827531;29;20130;-83
2022/08/21 01:58:30;;;;;;;5.22;1.98;;;15.40;99.90;;;;;;4836558;29;20045;-83
2022/08/21 02:00:57;;;;;;;6.55;2.38;;;15.40;99.90;;;;;;4836790;29;20057;-83
2022/08/21 02:03:23;;;;;;;4.03;2.08;;;15.40;99.90;;;;;;4837421;29;20045;-83
2022/08/21 02:05:49;;;;;;;4.57;1.73;;;15.40;99.90;;;;;;4832930;29;20035;-83
2022/08/21 02:08:16;;;;;;;6.90;1.83;;;15.40;99.90;;;;;;4833971;29;20049;-83
2022/08/21 02:10:42;;;;;;;3.40;1.90;;;15.30;99.90;;;;;;4850466;29;20045;-84
2022/08/21 02:13:08;;;;;;;5.03;2.65;;;15.30;99.90;;;;;;4858348;29;20039;-84
2022/08/21 02:15:35;;;;;;;3.65;1.70;;;15.30;99.90;;;;;;4839493;29;20065;-84
2022/08/21 02:18:04;;;;;;;4.60;2.08;;;15.30;99.90;;;;;;4855385;29;20038;-83
2022/08/21 02:20:35;;;;;;;5.90;2.35;;;15.30;99.90;;;;;;4842357;29;20043;-83
2022/08/21 02:23:02;;;;;;;5.10;2.28;;;15.20;99.90;;;;;;4857759;29;20038;-83
2022/08/21 02:25:30;;;;;;;3.95;1.85;;;15.20;99.90;;;;;;4810344;29;20131;-83
2022/08/21 02:27:57;;;;;;;5.63;2.30;;;15.20;99.90;;;;;;4823555;29;20449;-82
2022/08/21 02:30:27;;;;;;;6.38;2.97;;;15.20;99.90;;;;;;4825794;29;20034;-82
2022/08/21 02:32:54;;;;;;;5.85;2.28;;;15.10;99.90;;;;;;4822967;29;20143;-82
2022/08/21 02:35:21;;;;;;;5.68;2.83;;;15.10;99.90;;;;;;4807899;29;20038;-82
2022/08/21 02:37:51;;;;;;;7.45;2.97;;;15.10;99.90;;;;;;4837783;29;20034;-81
2022/08/21 02:40:21;;;;;;;4.63;2.47;;;15.00;99.90;;;;;;4823105;29;20042;-81
2022/08/21 02:42:47;;;;;;;5.03;2.65;;;15.10;99.90;;;;;;4838566;29;20033;-83
2022/08/21 02:45:15;;;;;;;4.75;2.67;;;15.00;99.90;;;;;;4827955;29;20032;-81
2022/08/21 02:47:50;;;;;;;5.07;2.58;;;15.00;99.90;;;;;;4822119;29;20049;-83
2022/08/21 02:50:25;;;;;;;5.25;2.80;;;15.00;99.90;;;;;;4827414;29;20409;-83
2022/08/21 02:52:52;;;;;;;5.50;2.83;;;15.00;99.90;;;;;;4799764;29;20038;-82
2022/08/21 02:55:20;;;;;;;6.75;3.42;;;15.00;99.90;;;;;;4812317;29;20441;-83
2022/08/21 02:57:47;;;;;;;4.43;2.83;;;15.00;99.90;;;;;;4826823;29;20038;-82
2022/08/21 03:00:16;;;;;;;6.30;3.80;;;15.00;99.90;;;;;;4827018;29;20039;-83
2022/08/21 03:02:42;;;;;;;6.18;3.40;;;15.00;99.90;;;;;;4829786;29;20034;-83
2022/08/21 03:05:10;;;;;;;5.20;3.15;;;14.90;99.90;;;;;;4808660;29;20054;-82
2022/08/21 03:07:38;;;;;;;5.40;2.97;;;15.00;99.90;;;;;;4808621;29;20531;-82
2022/08/21 03:10:05;;;;;;;4.88;2.85;;;15.00;99.90;;;;;;4825580;29;20046;-82
2022/08/21 03:12:32;;;;;;;4.68;3.33;;;14.90;99.90;;;;;;4819008;29;20035;-83
2022/08/21 03:14:58;;;;;;;7.10;2.92;;;15.00;99.90;;;;;;4824501;29;20524;-81
2022/08/21 03:17:24;;;;;;;5.50;2.40;;;14.90;99.90;;;;;;4805384;29;20347;-81
2022/08/21 03:19:51;;;;;;;6.18;2.17;;;14.90;99.90;;;;;;4822734;29;20065;-82
2022/08/21 03:22:17;;;;;;;4.38;1.98;;;14.90;99.90;;;;;;4822935;29;20038;-82
2022/08/21 03:24:45;;;;;;;3.33;2.28;;;14.80;99.90;;;;;;4826519;29;20035;-80
2022/08/21 03:27:12;;;;;;;5.63;2.78;;;14.80;99.90;;;;;;4822653;29;20034;-82
2022/08/21 03:29:39;;;;;;;3.47;2.33;;;14.80;99.90;;;;;;4822527;29;20034;-82
2022/08/21 03:32:09;;;;;;;3.05;2.22;;;14.70;99.90;;;;;;4828367;29;20515;-80
2022/08/21 03:34:36;;;;;;;4.93;2.55;;;14.70;99.90;;;;;;4809705;29;20405;-81
2022/08/21 03:37:03;;;;;;;3.92;2.72;;;14.70;99.90;;;;;;4829214;29;20050;-81
2022/08/21 03:39:30;;;;;;;3.60;3.10;;;14.60;99.90;;;;;;4810407;29;20575;-83
2022/08/21 03:41:56;;;;;;;5.20;3.50;;;14.60;99.90;;;;;;4825512;29;20386;-82
2022/08/21 03:44:24;;;;;;;6.45;3.20;;;14.70;99.90;;;;;;4833007;29;20512;-82
2022/08/21 03:46:50;;;;;;;5.00;3.38;;;14.60;99.90;;;;;;4826280;29;20405;-82
2022/08/21 03:49:16;;;;;;;5.82;3.42;;;14.60;99.90;;;;;;4838894;29;20042;-82
2022/08/21 03:51:43;;;;;;;4.95;2.85;;;14.60;99.90;;;;;;4841507;29;20038;-82
2022/08/21 03:54:09;;;;;;;4.22;3.17;;;14.60;99.90;;;;;;4811572;29;20042;-81
2022/08/21 03:56:35;;;;;;;6.22;3.47;;;14.60;99.90;;;;;;4848904;29;20039;-82
2022/08/21 03:59:03;;;;;;;6.63;4.00;;;14.50;99.90;;;;;;4843754;29;20042;-82
2022/08/21 04:01:29;;;;;;;6.82;4.55;;;14.60;99.90;;;;;;4829620;29;20026;-83
2022/08/21 04:03:55;;;;;;;7.60;4.10;;;14.60;99.90;;;;;;4844384;29;20046;-83
2022/08/21 04:06:22;;;;;;;6.55;4.18;;;14.60;99.90;;;;;;4842367;29;20042;-83
2022/08/21 04:08:48;;;;;;;5.20;3.40;;;14.60;99.90;;;;;;4850228;29;20033;-82
2022/08/21 04:11:15;;;;;;;4.80;3.40;;;14.50;99.90;;;;;;4832855;29;20042;-83
2022/08/21 04:13:41;;;;;;;5.13;3.95;;;14.50;99.90;;;;;;4829756;29;20421;-84
2022/08/21 04:16:07;;;;;;;5.65;4.13;;;14.50;99.90;;;;;;4831494;29;20038;-82
2022/08/21 04:18:34;;;;;;;4.35;3.67;;;14.40;99.90;;;;;;4839868;29;20033;-84
2022/08/21 04:21:02;;;;;;;5.63;3.65;;;14.50;99.90;;;;;;4846274;29;20038;-84
2022/08/21 04:23:29;;;;;;;6.22;3.60;;;14.50;99.90;;;;;;4830018;29;20048;-84
2022/08/21 04:25:57;;;;;;;6.78;4.22;;;14.50;99.90;;;;;;4846799;29;20049;-83
2022/08/21 04:28:25;;;;;;;4.93;3.08;;;14.40;99.90;;;;;;4835215;29;20030;-83
2022/08/21 04:30:51;;;;;;;6.40;3.38;;;14.40;99.90;;;;;;4824736;29;20038;-83
2022/08/21 04:33:19;;;;;;;5.53;3.55;;;14.40;99.90;;;;;;4825336;29;20030;-82
2022/08/21 04:35:45;;;;;;;4.45;3.22;;;14.30;99.90;;;;;;4847574;29;20373;-83
2022/08/21 04:38:11;;;;;;;6.20;4.47;;;14.30;99.90;;;;;;4819079;29;20050;-83
2022/08/21 04:40:38;;;;;;;5.40;4.00;;;14.30;99.90;;;;;;4850384;29;20043;-81
2022/08/21 04:43:08;;;;;;;5.35;3.40;;;14.30;99.90;;;;;;4841465;29;20038;-83
2022/08/21 04:45:41;;;;;;;3.40;3.05;;;14.30;99.90;;;;;;4805350;29;20042;-83
2022/08/21 04:48:09;;;;;;;5.68;3.10;;;14.30;99.90;;;;;;4830467;29;20026;-83
2022/08/21 04:50:40;;;;;;;6.28;3.05;;;14.30;99.90;;;;;;4824644;29;20038;-83
2022/08/21 04:53:34;;;;;;;3.63;2.78;;;14.30;99.90;;;;;;4827260;29;20046;-83
2022/08/21 04:56:04;;;;;;;5.50;2.88;;;14.30;99.90;;;;;;4808606;29;20064;-82
2022/08/21 04:58:33;;;;;;;4.72;3.00;;;14.30;99.90;;;;;;4825067;29;20497;-82
2022/08/21 05:01:01;;;;;;;4.60;3.20;;;14.40;99.90;;;;;;4808114;29;20038;-82
2022/08/21 05:03:28;;;;;;;7.28;3.20;;;14.40;99.90;;;;;;4808172;29;20409;-83
2022/08/21 05:05:54;;;;;;;4.70;2.70;;;14.40;99.90;;;;;;4823846;29;20057;-83
2022/08/21 05:08:25;;;;;;;5.90;3.28;;;14.40;99.90;;;;;;4822626;29;20042;-83
2022/08/21 05:10:51;;;;;;;7.03;3.00;;;14.40;99.90;;;;;;4829198;29;20059;-82
2022/08/21 05:13:19;;;;;;;5.22;3.25;;;14.40;99.90;;;;;;4823933;29;20041;-82
2022/08/21 05:15:46;;;;;;;6.22;3.85;;;14.50;99.90;;;;;;4823217;29;20034;-83
2022/08/21 05:18:12;;;;;;;8.70;4.70;;;14.50;99.90;;;;;;4807246;29;20066;-82
2022/08/21 05:20:39;;;;;;;6.07;3.40;;;14.50;99.90;;;;;;4823675;29;20034;-83
2022/08/21 05:23:11;;;;;;;6.65;4.20;;;14.50;99.90;;;;;;4810815;29;20035;-82
2022/08/21 05:25:37;;;;;;;6.55;3.92;;;14.60;99.90;;;;;;4829263;29;20037;-83
2022/08/21 05:28:05;;;;;;;4.72;3.47;;;14.60;99.90;;;;;;4822993;29;20045;-82
2022/08/21 05:30:32;;;;;;;6.95;3.53;;;14.70;99.90;;;;;;4805898;29;20035;-83
2022/08/21 05:33:01;;;;;;;6.88;3.80;;;14.70;99.90;;;;;;4825725;29;20038;-82
2022/08/21 05:35:29;;;;;;;5.43;3.88;;;14.70;99.90;;;;;;4824292;29;20045;-82
2022/08/21 05:37:56;;;;;;;5.60;4.22;;;14.80;99.90;;;;;;4847863;29;20038;-83
2022/08/21 05:40:22;;;;;;;8.13;4.13;;;14.80;99.90;;;;;;4865110;29;20038;-83
2022/08/21 05:42:50;;;;;;;4.57;3.03;;;14.90;99.90;;;;;;4822527;29;20034;-83
2022/08/21 05:45:16;;;;;;;7.00;4.53;;;14.90;99.90;;;;;;4829000;29;20036;-83
2022/08/21 05:47:43;;;;;;;5.68;3.33;;;15.00;99.90;;;;;;4807615;29;20077;-83
2022/08/21 05:50:09;;;;;;;5.30;3.78;;;15.10;99.90;;;;;;4826234;29;20042;-83
2022/08/21 05:52:36;;;;;;;6.85;3.78;;;15.20;99.90;;;;;;4822539;29;20042;-82
2022/08/21 05:55:03;;;;;;;5.63;3.17;;;15.30;99.90;;;;;;4829423;29;20043;-84
2022/08/21 05:57:29;;;;;;;4.68;3.55;;;15.50;99.90;;;;;;4818942;29;20053;-84
2022/08/21 05:59:56;;;;;;;5.63;3.13;;;15.70;99.90;;;;;;4810990;29;20065;-83
2022/08/21 06:02:22;;;;;;;4.43;2.67;;;15.90;99.90;;;;;;4823594;29;20042;-82
2022/08/21 06:04:48;;;;;;;5.30;3.15;;;16.10;99.90;;;;;;4840499;29;20065;-83
2022/08/21 06:07:15;;;;;;;6.72;4.05;;;16.40;99.90;;;;;;4838651;29;20026;-84
2022/08/21 06:09:41;;;;;;;5.55;4.15;;;16.60;99.90;;;;;;4831850;29;20057;-84
2022/08/21 06:12:10;;;;;;;5.93;3.70;;;16.80;99.90;;;;;;4823554;29;20766;-83
2022/08/21 06:14:38;;;;;;;4.63;3.65;;;17.00;99.90;;;;;;4812997;29;20041;-83
2022/08/21 06:17:12;;;;;;;5.35;4.15;;;17.20;99.90;;;;;;4820211;29;20042;-84
2022/08/21 06:19:38;;;;;;;7.78;4.22;;;17.50;99.90;;;;;;4807156;29;20046;-83
2022/08/21 06:22:05;;;;;;;8.32;5.35;;;17.60;99.90;;;;;;4821744;29;20037;-84
2022/08/21 06:24:31;;;;;;;7.18;5.03;;;17.80;99.90;;;;;;4824292;29;20038;-83
2022/08/21 06:27:03;;;;;;;5.30;4.40;;;18.00;99.90;;;;;;4822041;29;20035;-84
2022/08/21 06:29:29;;;;;;;5.93;3.53;;;18.20;99.90;;;;;;4821717;29;20509;-84
2022/08/21 06:31:58;;;;;;;8.10;4.80;;;18.30;99.90;;;;;;4821628;29;20038;-83
2022/08/21 06:34:24;;;;;;;9.57;4.50;;;18.40;99.90;;;;;;4791690;29;20053;-83
2022/08/21 06:36:51;;;;;;;5.68;3.55;;;18.50;99.90;;;;;;4828612;29;20029;-84
2022/08/21 06:39:17;;;;;;;7.78;4.50;;;18.60;99.90;;;;;;4821583;29;20038;-83
2022/08/21 06:41:43;;;;;;;10.50;4.88;;;18.70;99.90;;;;;;4828631;29;20045;-84
2022/08/21 06:44:09;;;;;;;6.85;3.88;;;18.80;99.90;;;;;;4823074;29;20034;-83
2022/08/21 06:46:36;;;;;;;8.73;4.20;;;19.00;99.90;;;;;;4819821;29;20031;-84
2022/08/21 06:49:03;;;;;;;7.07;4.25;;;19.30;99.90;;;;;;4837060;29;20030;-84
2022/08/21 06:51:29;;;;;;;9.85;5.00;;;19.40;99.90;;;;;;4821497;29;20034;-84
2022/08/21 06:53:55;;;;;;;8.85;4.88;;;19.50;99.90;;;;;;4821664;29;20038;-83
2022/08/21 06:56:22;;;;;;;11.13;5.18;;;19.60;99.90;;;;;;4823782;29;20034;-82
2022/08/21 06:58:48;;;;;;;9.43;5.85;;;19.70;99.90;;;;;;4821424;29;20034;-82
2022/08/21 07:01:14;;;;;;;5.90;4.03;;;20.00;99.90;;;;;;4818406;29;20042;-81
2022/08/21 07:03:42;;;;;;;7.68;4.22;;;20.30;99.90;;;;;;4837435;29;20042;-83
2022/08/21 07:06:10;;;;;;;8.73;3.63;;;20.40;99.90;;;;;;4805681;29;20038;-82
2022/08/21 07:08:37;;;;;;;8.13;4.22;;;20.50;99.90;;;;;;4829154;29;20045;-84
2022/08/21 07:11:10;;;;;;;10.00;4.20;;;20.50;99.90;;;;;;4826309;29;20035;-82
2022/08/21 07:13:37;;;;;;;8.82;3.72;;;20.50;99.90;;;;;;4835929;29;20053;-82
2022/08/21 07:16:03;;;;;;;7.45;3.33;;;20.40;99.90;;;;;;4821760;29;20043;-81
2022/08/21 07:18:29;;;;;;;9.43;4.60;;;20.40;99.90;;;;;;4822969;29;20034;-80
2022/08/21 07:20:55;;;;;;;10.98;3.95;;;20.40;99.90;;;;;;4838968;29;20038;-84
2022/08/21 07:23:27;;;;;;;12.95;4.50;;;20.50;99.90;;;;;;4821389;29;20039;-83
2022/08/21 07:25:54;;;;;;;8.10;4.50;;;20.50;99.90;;;;;;4836239;29;20027;-82
2022/08/21 07:28:20;;;;;;;6.65;3.85;;;20.60;99.90;;;;;;4807307;29;20030;-84
2022/08/21 07:30:51;;;;;;;6.63;3.63;;;20.60;99.90;;;;;;4835798;29;20030;-83
2022/08/21 07:33:18;;;;;;;4.97;2.28;;;20.80;99.90;;;;;;4820944;29;20038;-84
2022/08/21 07:35:44;;;;;;;7.50;3.60;;;20.80;99.90;;;;;;4836120;29;20505;-83
2022/08/21 07:38:10;;;;;;;7.47;3.28;;;21.00;99.90;;;;;;4809668;29;20046;-84
2022/08/21 07:40:37;;;;;;;5.78;2.83;;;21.10;99.90;;;;;;4823641;29;20035;-84
2022/08/21 07:43:03;;;;;;;7.68;2.75;;;21.20;99.90;;;;;;4820531;29;20046;-83
2022/08/21 07:45:29;;;;;;;5.93;2.47;;;21.30;99.90;;;;;;4809120;29;20026;-83
2022/08/21 07:47:56;;;;;;;5.55;2.53;;;21.40;99.90;;;;;;4824905;29;20038;-83
2022/08/21 07:50:23;;;;;;;5.45;2.45;;;21.50;99.90;;;;;;4824893;29;20046;-84
2022/08/21 07:52:49;;;;;;;12.73;3.95;;;21.50;99.90;;;;;;4839469;29;20027;-85
2022/08/21 07:55:18;;;;;;;12.43;5.28;;;21.70;99.90;;;;;;4814976;29;20045;-83
2022/08/21 07:57:44;;;;;;;7.78;2.72;;;21.80;99.90;;;;;;4826934;29;20042;-83
2022/08/21 08:00:17;;;;;;;8.27;3.30;;;21.80;99.90;;;;;;4808507;29;20042;-83
2022/08/21 08:02:50;;;;;;;8.95;2.83;;;21.90;99.90;;;;;;4805391;29;20030;-84
2022/08/21 08:05:19;;;;;;;5.40;2.45;;;22.00;99.90;;;;;;4806197;29;20038;-82
2022/08/21 08:07:45;;;;;;;7.60;2.75;;;22.00;99.90;;;;;;4835971;29;20046;-83
2022/08/21 08:10:12;;;;;;;9.10;3.75;;;21.90;99.90;;;;;;4827166;29;20046;-84
2022/08/21 08:12:41;;;;;;;9.20;3.90;;;21.80;99.90;;;;;;4822647;29;20141;-85
2022/08/21 08:15:10;;;;;;;9.23;2.95;;;21.70;99.90;;;;;;4806587;29;20031;-85
2022/08/21 08:17:38;;;;;;;8.05;2.97;;;21.70;99.90;;;;;;4804354;29;20046;-85
2022/08/21 08:20:09;;;;;;;8.98;3.67;;;21.80;99.90;;;;;;4826929;29;20039;-84
2022/08/21 08:22:38;;;;;;;9.20;3.70;;;22.00;99.90;;;;;;4825999;29;20081;-84
2022/08/21 08:25:06;;;;;;;7.20;2.88;;;22.10;99.90;;;;;;4822134;29;20049;-84
2022/08/21 08:27:32;;;;;;;5.97;2.20;;;22.20;99.90;;;;;;4826712;29;20054;-85
2022/08/21 08:29:59;;;;;;;6.93;2.42;;;22.40;99.90;;;;;;4822156;29;20043;-84
2022/08/21 08:32:25;;;;;;;8.98;2.70;;;22.70;99.90;;;;;;4830672;29;20038;-83
2022/08/21 08:34:52;;;;;;;8.68;3.38;;;22.90;99.90;;;;;;4846496;29;20046;-83
2022/08/21 08:37:19;;;;;;;11.15;3.65;;;23.00;99.90;;;;;;4814047;29;20034;-84
2022/08/21 08:39:46;;;;;;;9.35;2.63;;;23.10;99.90;;;;;;4832845;29;20716;-84
2022/08/21 08:42:16;;;;;;;6.75;1.85;;;23.20;99.90;;;;;;4830994;29;20046;-84
2022/08/21 08:44:44;;;;;;;6.65;2.05;;;23.30;99.90;;;;;;4825751;29;20591;-84
2022/08/21 08:47:16;;;;;;;5.47;1.65;;;23.40;99.90;;;;;;4823224;29;20402;-85
2022/08/21 08:50:03;;;;;;;7.75;3.28;;;23.50;99.90;;;;;;4820598;29;20035;-85
2022/08/21 08:52:42;;;;;;;5.47;1.60;;;23.70;99.50;;;;;;4824344;29;20046;-83
2022/08/21 08:55:20;;;;;;;4.47;1.73;;;23.70;99.30;;;;;;4823776;29;20039;-83
2022/08/21 08:57:49;;;;;;;5.28;1.60;;;23.80;99.30;;;;;;4810920;29;20397;-83
2022/08/21 09:00:19;;;;;;;8.68;2.42;;;24.00;99.10;;;;;;4829256;29;20038;-82
2022/08/21 09:02:46;;;;;;;7.50;2.03;;;24.10;98.70;;;;;;4828737;29;20038;-83
2022/08/21 09:05:51;;;;;;;4.75;1.67;;;24.10;98.50;;;;;;4828735;29;20066;-81
2022/08/21 09:08:48;;;;;;;8.75;2.60;;;24.20;98.40;;;;;;4825972;29;20041;-81
2022/08/21 09:11:47;;;;;;;6.80;1.60;;;24.30;97.40;;;;;;4827655;29;20053;-81
2022/08/21 09:14:26;;;;;;;6.35;1.40;;;24.20;97.60;;;;;;4826500;29;20046;-83
2022/08/21 09:17:16;;;;;;;7.53;2.30;;;24.40;97.60;;;;;;4825571;29;20409;-84
2022/08/21 09:20:02;;;;;;;6.72;1.60;;;24.60;97.40;;;;;;4810233;29;20409;-84
2022/08/21 09:23:00;;;;;;;6.97;1.42;;;24.80;97.30;;;;;;4824952;29;20037;-84
2022/08/21 09:25:32;;;;;;;5.30;1.20;;;25.00;96.80;;;;;;4823461;29;20041;-83
2022/08/21 09:27:58;;;;;;;5.93;1.48;;;25.10;96.40;;;;;;4827937;29;20054;-83
2022/08/21 09:30:31;;;;;;;4.88;1.20;;;25.20;96.10;;;;;;4814232;29;20046;-82
2022/08/21 09:32:59;;;;;;;5.57;1.35;;;25.30;96.00;;;;;;4818137;29;20502;-81
2022/08/21 09:35:26;;;;;;;9.63;1.73;;;25.50;95.70;;;;;;4839512;29;20501;-83
2022/08/21 09:38:06;;;;;;;4.55;0.98;;;25.60;95.10;;;;;;4820420;29;20038;-85
2022/08/21 09:40:35;;;;;;;5.45;1.25;;;25.60;94.90;;;;;;4816595;29;20046;-83
2022/08/21 09:43:04;;;;;;;5.78;1.35;;;25.70;94.60;;;;;;4820284;29;20050;-84
2022/08/21 09:45:32;;;;;;;3.75;1.08;;;25.90;94.60;;;;;;4823249;29;20038;-84
2022/08/21 09:48:10;;;;;;;5.22;1.10;;;25.90;94.20;;;;;;4807451;29;20026;-83
2022/08/21 09:50:36;;;;;;;6.57;1.33;;;26.10;93.80;;;;;;4815084;29;20046;-83
2022/08/21 09:53:03;;;;;;;5.15;1.38;;;26.20;93.60;;;;;;4814297;29;20059;-84
2022/08/21 09:58:33;;;;;;;4.70;0.88;;;26.30;92.80;;;;;;4820329;29;20268;-84
2022/08/21 10:01:03;;;;;;;5.30;1.20;;;26.50;92.50;;;;;;4821954;29;20082;-84
2022/08/21 10:03:30;;;;;;;5.22;0.85;;;26.70;92.30;;;;;;4809238;29;20057;-84
2022/08/21 10:06:00;;;;;;;5.88;1.05;;;26.90;92.30;;;;;;4818671;29;20041;-84
2022/08/21 10:08:28;;;;;;;5.90;1.20;;;26.90;91.60;;;;;;4831139;29;20045;-83
2022/08/21 10:11:06;;;;;;;6.15;0.88;;;26.80;91.10;;;;;;4818962;29;20050;-84
2022/08/21 10:14:03;;;;;;;7.13;0.88;;;26.80;91.00;;;;;;4822878;29;20046;-85
2022/08/21 10:16:48;;;;;;;5.40;1.10;;;27.10;90.70;;;;;;4836190;29;20401;-85
2022/08/21 10:19:42;;;;;;;4.15;1.05;;;27.40;90.40;;;;;;4806687;29;20046;-84
2022/08/21 10:22:46;;;;;;;5.55;0.80;;;27.70;89.40;;;;;;4832884;29;20045;-84
2022/08/21 10:25:31;;;;;;;3.08;0.70;;;27.70;88.00;;;;;;4828767;29;20495;-83
2022/08/21 10:28:10;;;;;;;3.22;0.73;;;27.80;87.70;;;;;;4833029;29;20061;-83
2022/08/21 10:30:49;;;;;;;4.35;0.60;;;28.10;87.30;;;;;;4829331;29;20417;-84
2022/08/21 10:33:41;;;;;;;6.80;0.90;;;28.20;86.10;;;;;;4820609;29;20042;-86
2022/08/21 10:36:37;;;;;;;3.72;1.05;;;28.20;85.50;;;;;;4819615;29;20049;-86
2022/08/21 10:39:31;;;;;;;3.15;0.80;;;28.10;84.90;;;;;;4805560;29;20308;-84
2022/08/21 10:42:11;;;;;;;4.63;1.00;;;28.10;85.10;;;;;;4817605;29;20418;-84
2022/08/21 10:45:09;;;;;;;5.00;0.80;;;28.30;84.70;;;;;;4813552;29;20038;-84
2022/08/21 10:47:48;;;;;;;6.05;1.42;;;28.70;83.80;;;;;;4830794;29;20039;-82
2022/08/21 10:50:33;;;;;;;2.88;0.75;;;29.30;81.60;;;;;;4813660;29;20047;-84
2022/08/21 10:53:23;;;;;;;4.07;0.68;;;29.60;80.70;;;;;;4831100;29;20045;-82
2022/08/21 10:56:00;;;;;;;5.63;1.27;;;30.00;79.10;;;;;;4831985;29;20777;-84
2022/08/21 10:58:31;;;;;;;4.00;0.75;;;30.30;76.90;;;;;;4819727;29;20046;-85
2022/08/21 11:01:07;;;;;;;3.42;0.70;;;30.10;75.00;;;;;;4810067;29;20046;-84
2022/08/21 11:03:41;;;;;;;2.92;0.70;;;30.10;75.00;;;;;;4817618;29;20503;-84
2022/08/21 11:06:27;;;;;;;3.40;0.65;;;30.10;74.10;;;;;;4811409;29;20114;-86
2022/08/21 11:09:17;;;;;;;4.10;0.80;;;30.10;73.50;;;;;;4833470;29;20400;-86
2022/08/21 11:12:10;;;;;;;2.60;0.60;;;30.50;72.90;;;;;;4822818;29;20035;-84
2022/08/21 11:14:53;;;;;;;4.25;0.60;;;31.10;71.50;;;;;;4820396;29;20412;-84
2022/08/21 11:17:30;;;;;;;6.85;0.70;;;31.40;69.30;;;;;;4820626;29;20046;-85
2022/08/21 11:20:08;;;;;;;3.22;0.52;;;31.40;68.10;;;;;;4822655;29;20046;-85
2022/08/21 11:22:47;;;;;;;3.47;0.70;;;31.30;67.20;;;;;;4821025;29;20481;-86
2022/08/21 11:25:30;;;;;;;5.30;1.40;;;31.40;66.90;;;;;;4819113;29;20035;-87
2022/08/21 11:28:19;;;;;;;2.97;0.73;;;31.80;67.00;;;;;;4825463;29;20046;-86
2022/08/21 11:31:02;;;;;;;4.82;0.70;;;32.30;66.20;;;;;;4816989;29;20045;-84
2022/08/21 11:34:03;;;;;;;2.67;0.47;;;32.80;65.10;;;;;;4803120;29;20054;-85
2022/08/21 11:36:34;;;;;;;2.97;0.53;;;33.20;63.70;;;;;;4817284;29;20050;-86
2022/08/21 11:39:25;;;;;;;2.80;0.60;;;33.50;62.70;;;;;;4806119;29;20035;-86
2022/08/21 11:42:04;;;;;;;2.90;0.60;;;33.90;61.50;;;;;;4819196;29;20038;-84
2022/08/21 11:44:59;;;;;;;6.10;3.05;;;34.20;60.30;;;;;;4832470;29;20493;-85
2022/08/21 11:48:03;;;;;;;4.15;0.77;;;34.50;58.50;;;;;;4833525;29;20042;-85
2022/08/21 11:50:32;;;;;;;7.38;5.45;;;34.70;57.80;;;;;;4800334;29;20050;-84
2022/08/21 11:53:18;;;;;;;4.78;2.75;;;34.90;56.50;;;;;;4833062;29;20127;-85
2022/08/21 11:55:50;;;;;;;3.72;0.95;;;35.10;56.10;;;;;;4822132;29;20041;-84
2022/08/21 11:58:24;;;;;;;3.30;0.60;;;35.40;54.70;;;;;;4823166;29;20035;-84
2022/08/21 12:00:55;;;;;;;3.75;0.70;;;35.70;54.80;;;;;;4831751;29;20031;-83
2022/08/21 12:03:35;;;;;;;3.78;0.75;;;36.00;54.30;;;;;;4832036;29;20047;-86
2022/08/21 12:06:06;;;;;;;3.22;0.70;;;36.30;53.00;;;;;;4820982;29;20042;-82
2022/08/21 12:08:38;;;;;;;3.38;0.65;;;36.60;51.80;;;;;;4808610;29;20039;-83
2022/08/21 12:11:16;;;;;;;3.80;0.77;;;36.70;51.20;;;;;;4818290;29;20053;-85
2022/08/21 12:14:00;;;;;;;3.45;0.70;;;37.10;51.10;;;;;;4835001;29;20049;-83
2022/08/21 12:16:39;;;;;;;4.38;0.55;;;37.30;49.90;;;;;;4838620;29;20389;-82
2022/08/21 12:19:12;;;;;;;4.25;1.90;;;37.10;49.30;;;;;;4823181;29;20042;-82
2022/08/21 12:21:51;;;;;;;3.67;0.80;;;37.10;49.60;;;;;;4808114;29;20366;-83
2022/08/21 12:24:37;;;;;;;2.90;0.63;;;37.30;48.80;;;;;;4836027;29;20030;-83
2022/08/21 12:27:44;;;;;;;3.38;0.80;;;37.50;48.50;;;;;;4838711;29;20031;-83
2022/08/21 12:30:28;;;;;;;5.10;1.10;;;37.90;47.80;;;;;;4807828;29;20049;-83
2022/08/21 12:33:04;;;;;;;2.88;0.45;;;37.90;47.50;;;;;;4844560;29;20030;-83
2022/08/21 12:35:38;;;;;;;4.50;0.88;;;37.80;47.70;;;;;;4812125;29;20117;-84
2022/08/21 12:38:18;;;;;;;2.58;0.50;;;37.90;47.50;;;;;;4826630;29;20489;-83
2022/08/21 12:40:53;;;;;;;2.58;0.52;;;38.30;47.20;;;;;;4838045;29;20370;-86
2022/08/21 12:43:27;;;;;;;4.47;0.82;;;38.60;46.30;;;;;;4819123;29;20382;-86
2022/08/21 12:45:53;;;;;;;2.47;0.50;;;38.80;45.70;;;;;;4835251;29;20038;-85
2022/08/21 12:48:35;;;;;;;3.53;0.70;;;38.40;45.60;;;;;;4827031;29;20026;-84
2022/08/21 12:51:13;;;;;;;3.47;0.93;;;37.00;46.30;;;;;;4820933;29;20058;-84
2022/08/21 12:53:47;;;;;;;3.58;1.45;;;35.80;47.50;;;;;;4838815;29;20030;-84
2022/08/21 12:56:20;;;;;;;8.88;5.40;;;35.40;48.30;;;;;;4837846;29;20031;-83
2022/08/21 12:58:58;;;;;;;3.00;0.90;;;36.10;47.90;;;;;;4791531;29;20041;-84
2022/08/21 13:01:31;;;;;;;3.45;1.25;;;37.10;47.10;;;;;;4833274;29;20074;-84
2022/08/21 13:04:01;;;;;;;3.30;0.70;;;37.90;45.70;;;;;;4819183;29;20031;-84
2022/08/21 13:06:31;;;;;;;4.35;0.80;;;38.10;45.00;;;;;;4837643;29;20076;-85
2022/08/21 13:09:07;;;;;;;2.30;0.63;;;38.70;44.90;;;;;;4822925;29;20034;-84